createdAt,value
2023-05-19T00:02:00.230Z,102246.97
2023-05-19T00:04:27.738Z,102245.06
2023-05-19T00:06:54.565Z,102240.63
2023-05-19T00:09:22.185Z,102240.88
2023-05-19T00:11:49.117Z,102243.03
2023-05-19T00:14:16.123Z,102234.38
2023-05-19T00:16:43.281Z,102239.66
2023-05-19T00:19:10.067Z,102238.91
2023-05-19T00:21:40.499Z,102246.19
2023-05-19T00:24:07.872Z,102246.19
2023-05-19T00:26:34.399Z,102243.03
2023-05-19T00:29:05.465Z,102246.03
2023-05-19T00:31:33.882Z,102244.94
2023-05-19T00:34:01.138Z,102241.75
2023-05-19T00:36:28.278Z,102237.38
2023-05-19T00:38:55.861Z,102232.59
2023-05-19T00:41:22.698Z,102237.94
2023-05-19T00:43:50.647Z,102230.16
2023-05-19T00:46:19.086Z,102223.75
2023-05-19T00:48:45.925Z,102227.06
2023-05-19T00:51:16.620Z,102224.38
2023-05-19T00:53:48.390Z,102226.38
2023-05-19T00:56:16.599Z,102228.25
2023-05-19T00:58:44.001Z,102222.84
2023-05-19T01:01:12.020Z,102226.22
2023-05-19T01:03:40.955Z,102228.56
2023-05-19T01:06:07.919Z,102226.91
2023-05-19T01:08:37.074Z,102226.53
2023-05-19T01:11:07.942Z,102239.72
2023-05-19T01:13:35.247Z,102232.25
2023-05-19T01:16:01.705Z,102229.25
2023-05-19T01:19:01.585Z,102227.75
2023-05-19T01:21:46.537Z,102217.56
2023-05-19T01:24:34.875Z,102210.56
2023-05-19T01:27:33.844Z,102226.69
2023-05-19T01:30:25.471Z,102221.72
2023-05-19T01:32:59.373Z,102227.22
2023-05-19T01:35:26.926Z,102230.69
2023-05-19T01:37:56.416Z,102229.25
2023-05-19T01:40:24.789Z,102227.75
2023-05-19T01:42:55.039Z,102233.41
2023-05-19T01:45:23.938Z,102228.88
2023-05-19T01:47:54.649Z,102234.59
2023-05-19T01:50:21.345Z,102241.91
2023-05-19T01:52:49.926Z,102221.28
2023-05-19T01:55:16.702Z,102224.88
2023-05-19T01:58:07.815Z,102223.16
2023-05-19T02:00:53.951Z,102229.34
2023-05-19T02:03:51.414Z,102232.53
2023-05-19T02:06:31.112Z,102230.44
2023-05-19T02:09:02.168Z,102231.91
2023-05-19T02:11:36.393Z,102233.88
2023-05-19T02:14:12.562Z,102223.19
2023-05-19T02:16:39.394Z,102227.09
2023-05-19T02:19:05.891Z,102217.81
2023-05-19T02:21:33.582Z,102221.47
2023-05-19T02:24:00.038Z,102218.78
2023-05-19T02:26:26.907Z,102219.16
2023-05-19T02:28:53.381Z,102216.28
2023-05-19T02:31:19.830Z,102215.03
2023-05-19T02:33:46.401Z,102208.00
2023-05-19T02:36:14.507Z,102207.41
2023-05-19T02:38:41.053Z,102213.31
2023-05-19T02:41:07.595Z,102207.03
2023-05-19T02:43:34.074Z,102213.53
2023-05-19T02:46:00.719Z,102219.44
2023-05-19T02:48:27.882Z,102206.75
2023-05-19T02:50:54.362Z,102215.59
2023-05-19T02:53:20.848Z,102206.41
2023-05-19T02:55:47.603Z,102207.72
2023-05-19T02:58:14.072Z,102201.50
2023-05-19T03:00:40.635Z,102203.13
2023-05-19T03:03:07.285Z,102202.69
2023-05-19T03:05:33.831Z,102206.16
2023-05-19T03:08:00.562Z,102201.00
2023-05-19T03:10:27.884Z,102204.03
2023-05-19T03:12:54.400Z,102198.25
2023-05-19T03:15:23.155Z,102197.88
2023-05-19T03:17:49.811Z,102202.25
2023-05-19T03:20:16.583Z,102199.16
2023-05-19T03:22:43.331Z,102192.34
2023-05-19T03:25:10.332Z,102197.81
2023-05-19T03:27:36.785Z,102196.25
2023-05-19T03:30:06.325Z,102197.50
2023-05-19T03:32:33.839Z,102199.00
2023-05-19T03:35:00.450Z,102195.09
2023-05-19T03:37:27.290Z,102208.00
2023-05-19T03:39:53.745Z,102202.22
2023-05-19T03:42:20.275Z,102200.97
2023-05-19T03:44:46.884Z,102198.19
2023-05-19T03:47:13.569Z,102202.56
2023-05-19T03:49:52.154Z,102203.41
2023-05-19T03:52:50.704Z,102199.50
2023-05-19T03:55:29.928Z,102198.03
2023-05-19T03:57:56.985Z,102201.34
2023-05-19T04:00:23.824Z,102193.66
2023-05-19T04:02:51.336Z,102205.78
2023-05-19T04:05:17.978Z,102198.44
2023-05-19T04:07:46.681Z,102203.25
2023-05-19T04:10:13.741Z,102202.59
2023-05-19T04:12:40.645Z,102205.09
2023-05-19T04:15:08.065Z,102201.72
2023-05-19T04:17:34.754Z,102203.34
2023-05-19T04:20:01.984Z,102208.69
2023-05-19T04:22:28.407Z,102208.97
2023-05-19T04:24:54.997Z,102207.59
2023-05-19T04:27:22.218Z,102209.25
2023-05-19T04:29:49.553Z,102211.09
2023-05-19T04:32:17.962Z,102219.03
2023-05-19T04:34:46.380Z,102214.03
2023-05-19T04:37:20.156Z,102223.78
2023-05-19T04:39:46.953Z,102214.56
2023-05-19T04:42:13.695Z,102214.13
2023-05-19T04:44:40.379Z,102213.69
2023-05-19T04:47:09.057Z,102216.22
2023-05-19T04:49:38.966Z,102218.75
2023-05-19T04:52:10.873Z,102226.47
2023-05-19T04:54:38.744Z,102220.44
2023-05-19T04:57:06.339Z,102225.38
2023-05-19T04:59:36.557Z,102224.59
2023-05-19T05:02:05.078Z,102224.00
2023-05-19T05:04:31.806Z,102217.56
2023-05-19T05:06:58.520Z,102217.97
2023-05-19T05:09:25.672Z,102215.53
2023-05-19T05:11:53.404Z,102215.44
2023-05-19T05:14:20.113Z,102214.16
2023-05-19T05:16:47.575Z,102216.88
2023-05-19T05:19:20.194Z,102218.31
2023-05-19T05:21:47.738Z,102219.84
2023-05-19T05:24:16.648Z,102220.31
2023-05-19T05:26:48.689Z,102220.38
2023-05-19T05:29:15.891Z,102226.91
2023-05-19T05:31:42.679Z,102219.16
2023-05-19T05:34:10.369Z,102227.56
2023-05-19T05:36:36.955Z,102222.63
2023-05-19T05:39:03.719Z,102215.03
2023-05-19T05:41:35.281Z,102225.19
2023-05-19T05:44:07.519Z,102213.59
2023-05-19T05:46:34.183Z,102216.34
2023-05-19T05:49:01.291Z,102211.06
2023-05-19T05:51:28.805Z,102212.84
2023-05-19T05:53:56.176Z,102199.56
2023-05-19T05:56:30.826Z,102204.16
2023-05-19T05:58:57.717Z,102216.97
2023-05-19T06:01:24.186Z,102218.81
2023-05-19T06:03:51.339Z,102217.06
2023-05-19T06:06:21.206Z,102217.81
2023-05-19T06:08:47.935Z,102214.78
2023-05-19T06:11:15.428Z,102213.19
2023-05-19T06:13:42.348Z,102208.47
2023-05-19T06:16:14.115Z,102221.25
2023-05-19T06:18:44.641Z,102226.22
2023-05-19T06:21:13.171Z,102222.78
2023-05-19T06:23:41.308Z,102215.22
2023-05-19T06:26:10.065Z,102210.94
2023-05-19T06:28:37.458Z,102210.47
2023-05-19T06:31:04.767Z,102217.94
2023-05-19T06:33:41.574Z,102222.31
2023-05-19T06:36:09.959Z,102215.44
2023-05-19T06:38:38.691Z,102213.94
2023-05-19T06:41:06.693Z,102208.94
2023-05-19T06:43:33.342Z,102211.59
2023-05-19T06:46:03.106Z,102205.41
2023-05-19T06:48:31.678Z,102205.50
2023-05-19T06:50:58.842Z,102201.75
2023-05-19T06:53:26.066Z,102206.34
2023-05-19T06:55:58.768Z,102196.91
2023-05-19T06:58:27.979Z,102208.91
2023-05-19T07:00:55.259Z,102209.97
2023-05-19T07:03:24.471Z,102205.84
2023-05-19T07:05:51.230Z,102201.53
2023-05-19T07:08:17.983Z,102204.34
2023-05-19T07:10:44.882Z,102210.75
2023-05-19T07:13:14.299Z,102211.22
2023-05-19T07:15:41.334Z,102212.44
2023-05-19T07:18:07.837Z,102214.72
2023-05-19T07:20:35.557Z,102202.69
2023-05-19T07:23:02.673Z,102204.97
2023-05-19T07:25:30.475Z,102202.13
2023-05-19T07:27:57.378Z,102208.72
2023-05-19T07:30:23.849Z,102204.84
2023-05-19T07:32:50.578Z,102206.34
2023-05-19T07:35:17.214Z,102201.13
2023-05-19T07:37:43.706Z,102202.41
2023-05-19T07:40:10.386Z,102200.06
2023-05-19T07:42:36.966Z,102198.50
2023-05-19T07:45:03.721Z,102193.16
2023-05-19T07:47:30.932Z,102200.19
2023-05-19T07:49:57.459Z,102195.53
2023-05-19T07:52:23.937Z,102197.69
2023-05-19T07:54:50.532Z,102207.94
2023-05-19T07:57:18.910Z,102193.88
2023-05-19T07:59:45.999Z,102188.28
2023-05-19T08:02:12.463Z,102185.56
2023-05-19T08:04:39.091Z,102180.66
2023-05-19T08:07:05.577Z,102187.22
2023-05-19T08:09:32.083Z,102184.13
2023-05-19T08:11:58.598Z,102188.38
2023-05-19T08:14:25.190Z,102181.28
2023-05-19T08:16:51.797Z,102185.75
2023-05-19T08:19:19.616Z,102189.66
2023-05-19T08:21:46.197Z,102177.03
2023-05-19T08:24:12.706Z,102189.13
2023-05-19T08:26:39.200Z,102182.03
2023-05-19T08:29:05.628Z,102178.41
2023-05-19T08:31:32.521Z,102180.59
2023-05-19T08:33:59.211Z,102176.78
2023-05-19T08:36:25.800Z,102165.56
2023-05-19T08:38:52.375Z,102179.53
2023-05-19T08:41:18.901Z,102175.38
2023-05-19T08:43:46.058Z,102169.69
2023-05-19T08:46:14.929Z,102179.56
2023-05-19T08:48:43.209Z,102171.66
2023-05-19T08:51:32.101Z,102158.47
2023-05-19T08:54:14.539Z,102158.19
2023-05-19T08:56:43.576Z,102153.69
2023-05-19T08:59:11.380Z,102151.28
2023-05-19T09:01:39.667Z,102149.69
2023-05-19T09:04:06.848Z,102152.41
2023-05-19T09:06:33.430Z,102154.78
2023-05-19T09:08:59.926Z,102151.19
2023-05-19T09:11:27.508Z,102142.25
2023-05-19T09:13:54.164Z,102140.13
2023-05-19T09:16:21.221Z,102139.38
2023-05-19T09:18:56.285Z,102143.69
2023-05-19T09:21:34.006Z,102140.50
2023-05-19T09:24:09.540Z,102140.66
2023-05-19T09:26:40.636Z,102125.47
2023-05-19T09:29:21.369Z,102130.78
2023-05-19T09:31:50.554Z,102142.03
2023-05-19T09:34:17.816Z,102136.22
2023-05-19T09:36:46.835Z,102120.03
2023-05-19T09:39:18.069Z,102120.03
2023-05-19T09:41:46.087Z,102129.81
2023-05-19T09:44:34.963Z,102107.13
2023-05-19T09:47:02.165Z,102112.66
2023-05-19T09:49:30.136Z,102112.84
2023-05-19T09:52:03.471Z,102110.81
2023-05-19T09:54:32.120Z,102106.91
2023-05-19T09:56:59.284Z,102109.38
2023-05-19T09:59:30.475Z,102099.44
2023-05-19T10:02:00.646Z,102093.44
2023-05-19T10:04:29.401Z,102100.31
2023-05-19T10:06:59.572Z,102104.50
2023-05-19T10:09:28.905Z,102098.25
2023-05-19T10:11:57.294Z,102097.25
2023-05-19T10:14:28.440Z,102095.84
2023-05-19T10:16:57.208Z,102090.19
2023-05-19T10:19:25.858Z,102100.69
2023-05-19T10:21:53.265Z,102099.34
2023-05-19T10:24:21.422Z,102090.78
2023-05-19T10:26:56.363Z,102077.88
2023-05-19T10:29:30.090Z,102076.56
2023-05-19T10:32:01.056Z,102089.22
2023-05-19T10:34:50.510Z,102074.50
2023-05-19T10:37:31.835Z,102081.41
2023-05-19T10:39:58.808Z,102077.63
2023-05-19T10:42:50.402Z,102077.81
2023-05-19T10:45:22.752Z,102074.91
2023-05-19T10:47:54.116Z,102079.59
2023-05-19T10:50:20.711Z,102068.59
2023-05-19T10:52:55.504Z,102066.81
2023-05-19T10:55:44.915Z,102064.19
2023-05-19T10:58:11.689Z,102065.66
2023-05-19T11:00:39.507Z,102071.50
2023-05-19T11:03:17.978Z,102051.88
2023-05-19T11:05:46.289Z,102058.16
2023-05-19T11:08:13.163Z,102063.81
2023-05-19T11:10:39.699Z,102052.66
2023-05-19T11:13:07.585Z,102063.75
2023-05-19T11:15:36.851Z,102065.59
2023-05-19T11:18:04.653Z,102060.13
2023-05-19T11:20:34.630Z,102061.38
2023-05-19T11:23:09.647Z,102061.97
2023-05-19T11:25:43.376Z,102066.06
2023-05-19T11:28:16.830Z,102059.00
2023-05-19T11:30:46.349Z,102068.72
2023-05-19T11:33:13.915Z,102059.41
2023-05-19T11:35:41.346Z,102053.03
2023-05-19T11:38:07.920Z,102042.44
2023-05-19T11:40:34.464Z,102041.66
2023-05-19T11:43:01.825Z,102033.34
2023-05-19T11:45:33.297Z,102030.91
2023-05-19T11:48:03.114Z,102042.38
2023-05-19T11:50:31.293Z,102032.50
2023-05-19T11:53:00.822Z,102038.13
2023-05-19T11:55:27.873Z,102027.81
2023-05-19T11:58:04.957Z,102032.03
2023-05-19T12:00:39.088Z,102035.41
2023-05-19T12:03:06.446Z,102030.06
2023-05-19T12:05:39.173Z,102028.88
2023-05-19T12:08:08.735Z,102026.44
2023-05-19T12:10:35.795Z,102037.16
2023-05-19T12:13:03.016Z,102027.63
2023-05-19T12:15:31.572Z,102024.88
2023-05-19T12:18:00.163Z,102030.19
2023-05-19T12:20:29.328Z,102021.84
2023-05-19T12:22:56.457Z,102031.88
2023-05-19T12:25:24.272Z,102029.19
2023-05-19T12:27:52.806Z,102023.84
2023-05-19T12:30:26.039Z,102014.53
2023-05-19T12:32:54.183Z,102021.75
2023-05-19T12:35:23.237Z,102024.91
2023-05-19T12:37:50.574Z,102014.56
2023-05-19T12:40:17.223Z,102010.88
2023-05-19T12:42:48.603Z,102007.34
2023-05-19T12:45:15.355Z,102009.41
2023-05-19T12:47:41.983Z,102008.22
2023-05-19T12:50:10.169Z,101994.66
2023-05-19T12:52:44.011Z,101993.94
2023-05-19T12:55:11.918Z,102002.38
2023-05-19T12:57:43.386Z,102003.47
2023-05-19T13:00:25.082Z,102006.72
2023-05-19T13:03:02.678Z,102009.97
2023-05-19T13:05:31.051Z,102003.31
2023-05-19T13:08:00.310Z,102002.16
2023-05-19T13:10:28.209Z,102000.75
2023-05-19T13:12:56.183Z,101990.66
2023-05-19T13:15:24.560Z,101988.00
2023-05-19T13:17:51.199Z,101992.88
2023-05-19T13:20:19.795Z,101988.63
2023-05-19T13:22:50.225Z,101990.69
2023-05-19T13:25:17.181Z,101984.22
2023-05-19T13:27:48.359Z,101984.72
2023-05-19T13:30:16.140Z,101981.38
2023-05-19T13:32:42.656Z,101987.50
2023-05-19T13:35:09.823Z,101982.59
2023-05-19T13:37:36.541Z,101979.22
2023-05-19T13:40:03.983Z,101968.09
2023-05-19T13:42:32.866Z,101972.00
2023-05-19T13:44:59.354Z,101972.03
2023-05-19T13:47:26.183Z,101979.22
2023-05-19T13:49:53.163Z,101975.84
2023-05-19T13:52:22.746Z,101978.56
2023-05-19T13:54:49.939Z,101977.22
2023-05-19T13:57:16.605Z,101979.28
2023-05-19T14:00:00.286Z,101977.66
2023-05-19T14:02:28.056Z,101967.59
2023-05-19T14:04:55.848Z,101970.22
2023-05-19T14:07:22.409Z,101964.69
2023-05-19T14:09:50.988Z,101961.94
2023-05-19T14:12:17.639Z,101957.16
2023-05-19T14:14:44.608Z,101951.03
2023-05-19T14:17:11.871Z,101942.75
2023-05-19T14:19:38.289Z,101953.38
2023-05-19T14:22:04.972Z,101948.09
2023-05-19T14:24:31.606Z,101942.53
2023-05-19T14:26:58.086Z,101934.78
2023-05-19T14:29:24.539Z,101936.00
2023-05-19T14:31:51.174Z,101936.31
2023-05-19T14:34:20.818Z,101937.53
2023-05-19T14:36:48.369Z,101948.03
2023-05-19T14:39:15.052Z,101951.25
2023-05-19T14:41:41.685Z,101944.91
2023-05-19T14:44:08.196Z,101953.16
2023-05-19T14:46:34.694Z,101946.94
2023-05-19T14:49:02.051Z,101949.47
2023-05-19T14:51:28.519Z,101939.44
2023-05-19T14:53:54.978Z,101946.03
2023-05-19T14:56:22.550Z,101952.34
2023-05-19T14:58:49.009Z,101949.91
2023-05-19T15:01:15.815Z,101947.56
2023-05-19T15:03:42.633Z,101934.47
2023-05-19T15:06:10.566Z,101945.94
2023-05-19T15:08:41.438Z,101932.03
2023-05-19T15:11:08.113Z,101940.63
2023-05-19T15:13:34.650Z,101934.28
2023-05-19T15:16:16.337Z,101926.91
2023-05-19T15:18:44.922Z,101926.38
2023-05-19T15:21:11.468Z,101918.22
2023-05-19T15:23:37.946Z,101925.00
2023-05-19T15:26:04.591Z,101920.00
2023-05-19T15:28:31.088Z,101918.72
2023-05-19T15:30:57.543Z,101929.31
2023-05-19T15:33:24.005Z,101927.91
2023-05-19T15:35:52.094Z,101938.41
2023-05-19T15:38:19.281Z,101934.16
2023-05-19T15:40:46.738Z,101937.31
2023-05-19T15:43:13.533Z,101935.78
2023-05-19T15:45:39.980Z,101941.34
2023-05-19T15:48:06.767Z,101932.44
2023-05-19T15:50:33.481Z,101925.50
2023-05-19T15:53:00.375Z,101932.22
2023-05-19T15:55:26.915Z,101922.63
2023-05-19T15:57:53.383Z,101918.63
2023-05-19T16:00:20.452Z,101910.06
2023-05-19T16:02:47.464Z,101904.34
2023-05-19T16:05:14.061Z,101918.94
2023-05-19T16:07:42.155Z,101912.38
2023-05-19T16:10:09.307Z,101908.13
2023-05-19T16:12:36.606Z,101903.63
2023-05-19T16:15:03.563Z,101909.66
2023-05-19T16:17:30.167Z,101901.06
2023-05-19T16:19:56.732Z,101900.47
2023-05-19T16:22:24.821Z,101898.13
2023-05-19T16:24:52.226Z,101904.38
2023-05-19T16:27:19.042Z,101899.97
2023-05-19T16:29:46.212Z,101902.53
2023-05-19T16:32:12.890Z,101901.03
2023-05-19T16:34:39.714Z,101898.41
2023-05-19T16:37:06.189Z,101905.59
2023-05-19T16:39:32.856Z,101896.91
2023-05-19T16:41:59.395Z,101893.63
2023-05-19T16:44:26.235Z,101887.41
2023-05-19T16:46:52.737Z,101890.78
2023-05-19T16:49:19.248Z,101896.50
2023-05-19T16:51:48.193Z,101895.34
2023-05-19T16:54:15.682Z,101899.34
2023-05-19T16:56:42.924Z,101895.16
2023-05-19T16:59:10.164Z,101893.63
2023-05-19T17:01:36.664Z,101898.38
2023-05-19T17:04:03.225Z,101899.78
2023-05-19T17:06:29.732Z,101901.63
2023-05-19T17:08:56.169Z,101909.78
2023-05-19T17:11:22.883Z,101901.19
2023-05-19T17:13:49.336Z,101906.22
2023-05-19T17:16:16.123Z,101899.94
2023-05-19T17:18:43.948Z,101897.78
2023-05-19T17:21:10.899Z,101903.41
2023-05-19T17:23:38.096Z,101899.22
2023-05-19T17:26:05.116Z,101901.22
2023-05-19T17:28:31.719Z,101901.97
2023-05-19T17:30:58.337Z,101900.66
2023-05-19T17:33:25.005Z,101898.94
2023-05-19T17:35:51.641Z,101898.59
2023-05-19T17:38:18.360Z,101897.59
2023-05-19T17:40:45.068Z,101896.78
2023-05-19T17:43:11.683Z,101898.75
2023-05-19T17:45:38.116Z,101894.47
2023-05-19T17:48:05.093Z,101900.44
2023-05-19T17:50:31.966Z,101902.97
2023-05-19T17:52:59.005Z,101899.28
2023-05-19T17:55:29.714Z,101914.53
2023-05-19T17:57:56.760Z,101898.53
2023-05-19T18:00:23.781Z,101906.34
2023-05-19T18:02:51.143Z,101898.84
2023-05-19T18:05:18.338Z,101902.56
2023-05-19T18:07:45.354Z,101907.38
2023-05-19T18:10:15.193Z,101900.84
2023-05-19T18:12:41.754Z,101892.97
2023-05-19T18:15:08.575Z,101895.19
2023-05-19T18:17:35.092Z,101896.97
2023-05-19T18:20:01.973Z,101902.41
2023-05-19T18:22:28.427Z,101899.28
2023-05-19T18:24:55.290Z,101898.53
2023-05-19T18:27:21.727Z,101892.28
2023-05-19T18:29:48.406Z,101895.31
2023-05-19T18:32:16.910Z,101901.47
2023-05-19T18:34:43.826Z,101899.31
2023-05-19T18:37:10.279Z,101901.25
2023-05-19T18:39:36.971Z,101912.81
2023-05-19T18:42:03.478Z,101907.44
2023-05-19T18:44:29.988Z,101903.13
2023-05-19T18:46:56.478Z,101903.31
2023-05-19T18:49:24.707Z,101908.16
2023-05-19T18:51:51.194Z,101899.66
2023-05-19T18:54:17.707Z,101901.91
2023-05-19T18:56:44.207Z,101910.31
2023-05-19T18:59:11.158Z,101913.53
2023-05-19T19:01:37.830Z,101917.47
2023-05-19T19:04:04.683Z,101914.75
2023-05-19T19:06:31.238Z,101917.34
2023-05-19T19:08:57.726Z,101916.00
2023-05-19T19:11:24.159Z,101918.25
2023-05-19T19:13:55.437Z,101926.03
2023-05-19T19:16:22.250Z,101930.75
2023-05-19T19:18:48.803Z,101930.59
2023-05-19T19:21:15.451Z,101927.56
2023-05-19T19:23:41.956Z,101936.38
2023-05-19T19:26:09.456Z,101931.56
2023-05-19T19:28:36.368Z,101934.19
2023-05-19T19:31:02.958Z,101933.69
2023-05-19T19:33:29.430Z,101940.28
2023-05-19T19:35:55.943Z,101938.25
2023-05-19T19:38:22.750Z,101939.44
2023-05-19T19:40:51.457Z,101946.06
2023-05-19T19:43:18.599Z,101947.50
2023-05-19T19:45:45.348Z,101948.06
2023-05-19T19:48:12.113Z,101950.53
2023-05-19T19:50:38.743Z,101946.88
2023-05-19T19:53:05.376Z,101944.16
2023-05-19T19:55:31.803Z,101945.56
2023-05-19T19:57:58.353Z,101950.56
2023-05-19T20:00:24.804Z,101954.44
2023-05-19T20:03:04.341Z,101959.63
2023-05-19T20:05:31.956Z,101959.69
2023-05-19T20:07:58.385Z,101959.94
2023-05-19T20:10:24.906Z,101959.94
2023-05-19T20:12:51.862Z,101957.75
2023-05-19T20:15:18.670Z,101956.34
2023-05-19T20:17:45.690Z,101964.38
2023-05-19T20:20:12.643Z,101960.28
2023-05-19T20:22:39.091Z,101967.09
2023-05-19T20:25:06.127Z,101972.06
2023-05-19T20:27:32.615Z,101979.19
2023-05-19T20:29:59.139Z,101982.53
2023-05-19T20:32:25.683Z,101976.72
2023-05-19T20:34:52.239Z,101974.84
2023-05-19T20:37:18.740Z,101976.50
2023-05-19T20:39:45.354Z,101980.34
2023-05-19T20:42:12.221Z,101977.03
2023-05-19T20:44:38.679Z,101982.25
2023-05-19T20:47:07.808Z,101978.97
2023-05-19T20:49:34.649Z,101981.19
2023-05-19T20:52:01.187Z,101975.97
2023-05-19T20:54:27.625Z,101986.41
2023-05-19T20:56:54.131Z,101989.94
2023-05-19T20:59:20.738Z,101988.28
2023-05-19T21:01:47.613Z,101980.34
2023-05-19T21:04:14.120Z,101980.66
2023-05-19T21:06:40.624Z,101980.38
2023-05-19T21:09:07.213Z,101976.25
2023-05-19T21:11:34.175Z,101969.69
2023-05-19T21:14:04.195Z,101981.22
2023-05-19T21:16:31.321Z,101979.84
2023-05-19T21:18:57.940Z,101979.59
2023-05-19T21:21:24.677Z,101985.59
2023-05-19T21:23:51.123Z,101976.84
2023-05-19T21:26:18.030Z,101983.16
2023-05-19T21:28:44.910Z,101994.13
2023-05-19T21:31:12.282Z,101989.19
2023-05-19T21:33:38.932Z,101989.72
2023-05-19T21:36:05.902Z,101990.53
2023-05-19T21:38:32.418Z,101997.94
2023-05-19T21:40:58.981Z,101993.28
2023-05-19T21:43:25.902Z,101998.75
2023-05-19T21:45:52.356Z,102003.66
2023-05-19T21:48:19.461Z,102002.25
2023-05-19T21:50:51.217Z,102001.16
2023-05-19T21:53:17.923Z,101995.41
2023-05-19T21:55:44.746Z,102003.03
2023-05-19T21:58:12.164Z,101995.63
2023-05-19T22:00:38.832Z,102001.09
2023-05-19T22:03:05.463Z,102001.06
2023-05-19T22:05:35.097Z,102007.63
2023-05-19T22:08:28.110Z,102005.97
2023-05-19T22:10:54.890Z,102005.94
2023-05-19T22:13:21.816Z,102004.78
2023-05-19T22:15:48.689Z,101999.56
2023-05-19T22:18:15.226Z,101996.28
2023-05-19T22:20:41.740Z,101997.94
2023-05-19T22:23:08.286Z,102006.59
2023-05-19T22:25:34.804Z,102001.31
2023-05-19T22:28:01.265Z,102001.31
2023-05-19T22:30:27.837Z,102013.00
2023-05-19T22:32:54.329Z,102007.50
2023-05-19T22:35:21.244Z,102009.91
2023-05-19T22:37:47.812Z,102010.97
2023-05-19T22:40:14.320Z,102004.31
2023-05-19T22:42:40.896Z,102009.56
2023-05-19T22:45:07.952Z,102015.25
2023-05-19T22:47:34.415Z,102020.16
2023-05-19T22:50:00.973Z,102017.06
2023-05-19T22:52:27.436Z,102011.03
2023-05-19T22:54:53.920Z,102010.72
2023-05-19T22:57:20.603Z,102012.34
2023-05-19T22:59:47.069Z,102018.78
2023-05-19T23:02:13.491Z,102017.53
2023-05-19T23:04:40.086Z,102022.50
2023-05-19T23:07:06.557Z,102021.88
2023-05-19T23:09:33.015Z,102019.91
2023-05-19T23:11:59.442Z,102026.69
2023-05-19T23:14:25.967Z,102020.69
2023-05-19T23:16:52.450Z,102030.72
2023-05-19T23:19:20.485Z,102037.31
2023-05-19T23:21:48.922Z,102032.84
2023-05-19T23:24:16.201Z,102036.06
2023-05-19T23:26:46.540Z,102032.19
2023-05-19T23:29:13.946Z,102036.53
2023-05-19T23:31:41.307Z,102034.00
2023-05-19T23:34:08.131Z,102037.47
2023-05-19T23:36:34.699Z,102027.31
2023-05-19T23:39:01.164Z,102034.25
2023-05-19T23:41:28.791Z,102035.44
2023-05-19T23:43:55.322Z,102042.31
2023-05-19T23:46:22.413Z,102041.06
2023-05-19T23:48:49.019Z,102047.13
2023-05-19T23:51:15.810Z,102041.31
2023-05-19T23:53:42.235Z,102044.56
2023-05-19T23:56:08.725Z,102037.44
2023-05-19T23:58:35.215Z,102043.25
